Time;durP1;ratioP1;P1;durP2;ratioP2;P2;SDS_P1;SDS_P2;PMS_P1;PMS_P2;Temp;Humidity;BMP_temperature;BMP_pressure;BME280_temperature;BME280_humidity;BME280_pressure;Samples;Min_cycle;Max_cycle;Signal;HPM_P1;HPM_P2
2023/08/30 00:01:36;;;;;;;2.83;1.80;;;26.10;48.20;;;;;;5059134;27;89132;-60
2023/08/30 00:04:04;;;;;;;2.53;1.97;;;26.10;48.20;;;;;;5043245;27;89384;-61
2023/08/30 00:06:33;;;;;;;3.37;2.30;;;26.10;48.10;;;;;;5039631;27;87868;-60
2023/08/30 00:09:03;;;;;;;2.47;1.93;;;26.10;48.10;;;;;;5039932;28;87709;-60
2023/08/30 00:11:32;;;;;;;4.10;2.50;;;26.10;48.10;;;;;;5039245;28;88315;-61
2023/08/30 00:14:05;;;;;;;3.27;2.17;;;26.10;48.10;;;;;;5040075;27;89202;-60
2023/08/30 00:16:33;;;;;;;3.00;1.60;;;26.10;48.10;;;;;;5039104;28;87843;-62
2023/08/30 00:19:02;;;;;;;2.13;1.80;;;26.10;48.10;;;;;;5038801;28;88448;-61
2023/08/30 00:21:30;;;;;;;2.40;1.53;;;26.10;48.10;;;;;;5038462;27;88301;-61
2023/08/30 00:23:58;;;;;;;2.77;1.67;;;26.10;48.10;;;;;;5038976;27;87501;-61
2023/08/30 00:26:28;;;;;;;4.13;2.00;;;26.10;48.10;;;;;;5037852;27;88709;-61
2023/08/30 00:28:56;;;;;;;2.50;1.43;;;26.10;48.10;;;;;;5038643;28;87682;-60
2023/08/30 00:31:24;;;;;;;2.90;2.07;;;26.00;48.00;;;;;;5038681;27;88364;-61
2023/08/30 00:33:52;;;;;;;2.83;2.10;;;26.10;48.00;;;;;;5038206;28;89553;-61
2023/08/30 00:36:21;;;;;;;3.43;2.13;;;26.00;48.00;;;;;;5038120;28;87705;-61
2023/08/30 00:38:50;;;;;;;3.33;2.00;;;26.10;48.10;;;;;;5039543;27;87330;-61
2023/08/30 00:41:18;;;;;;;2.87;2.20;;;26.00;48.10;;;;;;5039085;28;88556;-60
2023/08/30 00:43:47;;;;;;;3.17;2.30;;;26.00;48.10;;;;;;5037797;28;88975;-61
2023/08/30 00:46:16;;;;;;;2.00;1.80;;;26.00;48.50;;;;;;5039279;27;90201;-60
2023/08/30 00:48:44;;;;;;;1.77;1.50;;;26.00;48.10;;;;;;5038666;28;87673;-61
2023/08/30 00:51:12;;;;;;;2.00;1.47;;;26.00;48.20;;;;;;5038246;27;89715;-60
2023/08/30 00:53:41;;;;;;;3.10;1.93;;;26.00;48.20;;;;;;5038777;28;88862;-60
2023/08/30 00:56:09;;;;;;;2.90;1.97;;;26.00;48.20;;;;;;5038897;27;88916;-61
2023/08/30 00:58:37;;;;;;;4.43;2.13;;;26.00;48.20;;;;;;5038910;27;87684;-60
2023/08/30 01:01:08;;;;;;;2.20;1.53;;;26.00;48.30;;;;;;5058524;27;89618;-61
2023/08/30 01:03:37;;;;;;;2.73;1.77;;;25.90;48.20;;;;;;5045717;27;89073;-60
2023/08/30 01:06:05;;;;;;;4.23;2.03;;;26.00;48.20;;;;;;5038416;27;88889;-61
2023/08/30 01:08:34;;;;;;;3.47;2.07;;;26.00;48.30;;;;;;5036976;27;87975;-61
2023/08/30 01:11:06;;;;;;;2.90;2.00;;;25.90;48.20;;;;;;5037776;28;88547;-61
2023/08/30 01:13:35;;;;;;;3.27;2.20;;;25.90;48.20;;;;;;5038127;27;89070;-60
2023/08/30 01:16:06;;;;;;;3.17;1.93;;;25.90;48.20;;;;;;5038489;27;88842;-60
2023/08/30 01:18:36;;;;;;;3.37;1.80;;;25.90;48.30;;;;;;5038956;28;87582;-60
2023/08/30 01:21:05;;;;;;;3.73;2.23;;;25.90;48.20;;;;;;5037937;27;88447;-61
2023/08/30 01:23:40;;;;;;;2.60;1.80;;;25.90;48.20;;;;;;5037240;28;89122;-62
2023/08/30 01:26:11;;;;;;;3.00;2.00;;;25.90;48.30;;;;;;5038359;28;88928;-60
2023/08/30 01:28:40;;;;;;;3.10;2.40;;;25.90;48.30;;;;;;5038804;27;87805;-60
2023/08/30 01:31:09;;;;;;;2.87;2.17;;;25.90;48.30;;;;;;5038285;28;88526;-60
2023/08/30 01:33:38;;;;;;;4.13;2.17;;;25.90;48.30;;;;;;5036786;27;89994;-60
2023/08/30 01:36:06;;;;;;;4.83;2.07;;;25.80;48.20;;;;;;5037616;27;89738;-61
2023/08/30 01:38:34;;;;;;;3.07;2.10;;;25.90;48.30;;;;;;5038320;27;87658;-60
2023/08/30 01:41:02;;;;;;;3.60;2.57;;;25.80;48.20;;;;;;5037479;28;89150;-60
2023/08/30 01:43:31;;;;;;;2.43;1.60;;;25.80;48.30;;;;;;5037126;28;89142;-61
2023/08/30 01:46:02;;;;;;;6.83;2.57;;;25.90;48.30;;;;;;5037164;28;88848;-61
2023/08/30 01:48:30;;;;;;;4.23;2.60;;;25.80;48.20;;;;;;5037867;28;88082;-61
2023/08/30 01:51:00;;;;;;;3.17;2.27;;;25.90;48.30;;;;;;5038255;28;88412;-61
2023/08/30 01:53:28;;;;;;;3.07;2.30;;;25.80;48.20;;;;;;5037302;28;89041;-60
2023/08/30 01:55:56;;;;;;;3.20;2.07;;;25.90;48.30;;;;;;5038074;27;88802;-61
2023/08/30 01:58:24;;;;;;;2.23;1.80;;;25.80;48.20;;;;;;5036708;28;88001;-61
2023/08/30 02:00:53;;;;;;;3.60;2.43;;;25.90;48.30;;;;;;5036821;27;89595;-60
2023/08/30 02:03:22;;;;;;;3.70;2.07;;;25.80;48.20;;;;;;5039370;27;89100;-61
2023/08/30 02:05:57;;;;;;;3.53;2.20;;;25.80;48.20;;;;;;5037091;28;87834;-61
2023/08/30 02:08:27;;;;;;;6.70;2.30;;;25.80;48.20;;;;;;5037150;27;87571;-60
2023/08/30 02:10:57;;;;;;;2.77;2.47;;;25.80;48.20;;;;;;5037312;28;88622;-61
2023/08/30 02:13:27;;;;;;;3.43;1.87;;;25.80;48.20;;;;;;5037930;27;89080;-60
2023/08/30 02:15:56;;;;;;;4.73;2.63;;;25.80;48.20;;;;;;5037100;28;88743;-60
2023/08/30 02:18:26;;;;;;;3.63;2.07;;;25.80;48.30;;;;;;5036845;28;87572;-61
2023/08/30 02:20:55;;;;;;;3.47;2.87;;;25.80;48.20;;;;;;5036707;28;87365;-61
2023/08/30 02:23:24;;;;;;;4.20;2.30;;;25.80;48.90;;;;;;5036390;28;89241;-60
2023/08/30 02:25:54;;;;;;;3.00;2.00;;;25.80;48.30;;;;;;5044973;27;88800;-60
2023/08/30 02:28:23;;;;;;;3.53;2.23;;;25.80;48.30;;;;;;5058166;27;87487;-61
2023/08/30 02:30:53;;;;;;;3.33;2.67;;;25.80;48.30;;;;;;5040150;28;88898;-60
2023/08/30 02:33:21;;;;;;;2.83;2.13;;;25.80;48.30;;;;;;5058887;27;89151;-60
2023/08/30 02:35:51;;;;;;;2.63;1.90;;;25.80;48.90;;;;;;5060001;27;88905;-60
2023/08/30 02:38:19;;;;;;;2.90;2.03;;;25.80;48.30;;;;;;5060274;27;87388;-61
2023/08/30 02:40:47;;;;;;;4.10;2.47;;;25.80;48.30;;;;;;5060791;27;89694;-60
2023/08/30 02:43:15;;;;;;;2.20;1.97;;;25.80;48.30;;;;;;5060033;27;87989;-60
2023/08/30 02:45:43;;;;;;;3.10;1.77;;;25.80;48.90;;;;;;5040461;27;88956;-60
2023/08/30 02:48:12;;;;;;;2.97;1.70;;;25.70;48.30;;;;;;5039490;27;87923;-61
2023/08/30 02:50:40;;;;;;;2.70;1.90;;;25.70;48.30;;;;;;5040524;27;89743;-61
2023/08/30 02:53:10;;;;;;;2.30;1.50;;;25.70;48.30;;;;;;5042759;27;89040;-61
2023/08/30 02:55:38;;;;;;;2.27;2.07;;;25.70;48.30;;;;;;5043041;28;87445;-61
2023/08/30 02:58:06;;;;;;;2.30;2.00;;;25.70;48.20;;;;;;5042974;28;88626;-60
2023/08/30 03:00:35;;;;;;;2.80;2.20;;;25.70;48.30;;;;;;5042757;28;88841;-61
2023/08/30 03:03:03;;;;;;;2.77;2.03;;;25.70;48.30;;;;;;5047301;27;88890;-61
2023/08/30 03:05:31;;;;;;;2.70;1.80;;;25.70;48.30;;;;;;5042230;27;88906;-61
2023/08/30 03:07:59;;;;;;;2.57;2.00;;;25.70;48.30;;;;;;5043583;28;87308;-60
2023/08/30 03:10:29;;;;;;;2.63;1.70;;;25.70;48.30;;;;;;5043122;28;87291;-60
2023/08/30 03:12:57;;;;;;;5.20;1.87;;;25.70;48.30;;;;;;5042583;27;90093;-61
2023/08/30 03:15:25;;;;;;;2.83;2.00;;;25.60;48.20;;;;;;5042868;28;89751;-61
2023/08/30 03:17:53;;;;;;;1.67;1.40;;;25.70;48.30;;;;;;5043427;28;87730;-60
2023/08/30 03:20:21;;;;;;;3.00;1.93;;;25.60;48.20;;;;;;5043392;27;89624;-60
2023/08/30 03:22:50;;;;;;;2.03;1.40;;;25.60;48.20;;;;;;5042516;28;88103;-60
2023/08/30 03:25:18;;;;;;;1.60;1.50;;;25.70;48.30;;;;;;5042887;28;88780;-61
2023/08/30 03:27:47;;;;;;;2.17;1.60;;;25.70;48.30;;;;;;5042753;28;87435;-60
2023/08/30 03:30:15;;;;;;;2.27;1.87;;;25.60;48.20;;;;;;5043847;27;88099;-60
2023/08/30 03:32:44;;;;;;;3.40;2.00;;;25.70;48.30;;;;;;5039813;28;89038;-60
2023/08/30 03:35:12;;;;;;;3.03;1.93;;;25.60;48.20;;;;;;5039893;28;88936;-62
2023/08/30 03:37:40;;;;;;;2.50;1.80;;;25.70;48.30;;;;;;5039508;27;87955;-60
2023/08/30 03:40:09;;;;;;;3.43;1.70;;;25.60;48.20;;;;;;5040099;28;90804;-60
2023/08/30 03:42:37;;;;;;;2.10;1.60;;;25.60;48.20;;;;;;5039038;27;89336;-60
2023/08/30 03:45:08;;;;;;;2.70;1.40;;;25.60;48.20;;;;;;5039689;27;89014;-60
2023/08/30 03:47:36;;;;;;;2.07;1.50;;;25.60;48.20;;;;;;5039680;27;87633;-61
2023/08/30 03:50:05;;;;;;;2.73;1.67;;;25.60;48.20;;;;;;5039872;28;89881;-61
2023/08/30 03:52:34;;;;;;;2.13;1.87;;;25.60;48.20;;;;;;5039380;27;87969;-61
2023/08/30 03:55:03;;;;;;;2.43;1.70;;;25.60;48.20;;;;;;5039623;27;88033;-61
2023/08/30 03:57:31;;;;;;;2.20;1.50;;;25.60;48.20;;;;;;5039717;28;88156;-60
2023/08/30 03:59:59;;;;;;;2.30;1.40;;;25.60;48.20;;;;;;5039388;28;89588;-60
2023/08/30 04:02:28;;;;;;;2.57;1.70;;;25.60;48.20;;;;;;5037070;27;89829;-61
2023/08/30 04:04:56;;;;;;;1.60;1.47;;;25.60;48.20;;;;;;5038857;28;89538;-61
2023/08/30 04:07:24;;;;;;;2.47;1.30;;;25.60;48.90;;;;;;5039600;27;87483;-61
2023/08/30 04:09:52;;;;;;;2.40;1.50;;;25.60;48.20;;;;;;5038898;28;89642;-61
2023/08/30 04:12:20;;;;;;;2.80;1.67;;;25.50;48.20;;;;;;5039222;27;88988;-61
2023/08/30 04:14:49;;;;;;;2.57;1.50;;;25.60;48.90;;;;;;5039053;28;87506;-61
2023/08/30 04:17:17;;;;;;;1.47;1.37;;;25.60;48.20;;;;;;5038508;28;87651;-61
2023/08/30 04:19:46;;;;;;;1.40;1.30;;;25.60;48.20;;;;;;5052707;27;88562;-62
2023/08/30 04:22:14;;;;;;;1.47;1.37;;;25.60;48.20;;;;;;5057973;27;88769;-60
2023/08/30 04:24:42;;;;;;;2.17;1.73;;;25.50;48.20;;;;;;5062028;27;87851;-60
2023/08/30 04:27:10;;;;;;;2.17;1.40;;;25.50;48.20;;;;;;5061286;27;87941;-61
2023/08/30 04:29:38;;;;;;;1.67;1.57;;;25.50;48.20;;;;;;5042289;28;89639;-61
2023/08/30 04:32:07;;;;;;;1.80;1.60;;;25.50;48.20;;;;;;5042011;27;89138;-60
2023/08/30 04:34:35;;;;;;;2.30;1.37;;;25.50;48.20;;;;;;5042020;28;88837;-61
2023/08/30 04:37:04;;;;;;;1.63;1.40;;;25.50;48.20;;;;;;5042132;28;87150;-60
2023/08/30 04:39:32;;;;;;;2.53;1.47;;;25.50;48.20;;;;;;5050639;27;89753;-60
2023/08/30 04:42:02;;;;;;;1.93;1.60;;;25.50;48.20;;;;;;5061998;27;89165;-61
2023/08/30 04:44:32;;;;;;;1.60;1.40;;;25.50;48.20;;;;;;5059366;27;87483;-61
2023/08/30 04:47:00;;;;;;;1.70;1.50;;;25.50;48.20;;;;;;5042031;28;87525;-61
2023/08/30 04:49:29;;;;;;;1.70;1.37;;;25.40;48.20;;;;;;5041691;28;89736;-61
2023/08/30 04:51:57;;;;;;;3.07;1.30;;;25.50;48.20;;;;;;5041492;28;90142;-61
2023/08/30 04:54:26;;;;;;;1.70;1.50;;;25.40;48.20;;;;;;5041053;28;88698;-60
2023/08/30 04:56:54;;;;;;;4.13;1.47;;;25.40;48.20;;;;;;5041345;28;87564;-60
2023/08/30 04:59:25;;;;;;;1.70;1.40;;;25.40;48.20;;;;;;5041437;28;89516;-61
2023/08/30 05:01:53;;;;;;;2.30;1.40;;;25.40;48.20;;;;;;5044356;27;87994;-61
2023/08/30 05:04:21;;;;;;;2.20;1.30;;;25.40;48.20;;;;;;5040718;27;88800;-60
2023/08/30 05:06:49;;;;;;;5.77;1.70;;;25.40;48.20;;;;;;5041604;28;87316;-60
2023/08/30 05:09:17;;;;;;;4.70;1.60;;;25.40;48.20;;;;;;5040975;28;87494;-60
2023/08/30 05:11:47;;;;;;;3.00;1.90;;;25.40;48.20;;;;;;5041159;28;88054;-60
2023/08/30 05:14:15;;;;;;;1.57;1.47;;;25.40;48.20;;;;;;5040235;27;87790;-60
2023/08/30 05:16:43;;;;;;;1.83;1.50;;;25.40;48.20;;;;;;5040371;27;87943;-60
2023/08/30 05:19:11;;;;;;;2.83;2.33;;;25.40;48.20;;;;;;5041308;27;88595;-60
2023/08/30 05:21:39;;;;;;;2.00;1.47;;;25.40;48.20;;;;;;5040788;28;88866;-61
2023/08/30 05:24:07;;;;;;;2.20;1.63;;;25.40;48.20;;;;;;5040619;28;88700;-61
2023/08/30 05:26:35;;;;;;;2.77;1.40;;;25.40;48.20;;;;;;5041282;28;87537;-61
2023/08/30 05:29:05;;;;;;;3.27;1.93;;;25.40;48.20;;;;;;5040430;28;89719;-60
2023/08/30 05:31:33;;;;;;;1.83;1.70;;;25.40;48.20;;;;;;5040565;28;88009;-60
2023/08/30 05:34:01;;;;;;;5.77;2.73;;;25.40;48.10;;;;;;5041043;28;88443;-60
2023/08/30 05:36:29;;;;;;;4.03;2.03;;;25.40;48.20;;;;;;5041605;27;87756;-61
2023/08/30 05:38:57;;;;;;;2.37;1.57;;;25.40;48.20;;;;;;5040431;28;89826;-61
2023/08/30 05:41:25;;;;;;;2.00;1.73;;;25.40;48.20;;;;;;5040635;28;90116;-60
2023/08/30 05:43:54;;;;;;;3.23;2.17;;;25.40;48.20;;;;;;5039926;28;89837;-60
2023/08/30 05:46:23;;;;;;;3.70;1.90;;;25.40;48.20;;;;;;5041195;28;87627;-60
2023/08/30 05:48:52;;;;;;;2.57;1.90;;;25.40;48.10;;;;;;5040473;27;89947;-60
2023/08/30 05:51:20;;;;;;;4.00;2.20;;;25.40;48.20;;;;;;5040533;28;88974;-60
2023/08/30 05:53:48;;;;;;;2.40;1.80;;;25.40;48.20;;;;;;5040418;27;87787;-60
2023/08/30 05:56:17;;;;;;;2.23;1.63;;;25.40;48.20;;;;;;5040820;28;87758;-60
2023/08/30 05:58:45;;;;;;;2.50;1.73;;;25.30;48.10;;;;;;5040500;28;89726;-61
2023/08/30 06:01:14;;;;;;;2.67;1.87;;;25.30;48.10;;;;;;5039420;27;87986;-60
2023/08/30 06:03:45;;;;;;;3.37;2.23;;;25.30;48.20;;;;;;5039655;28;89373;-60
2023/08/30 06:06:14;;;;;;;3.60;2.40;;;25.30;48.10;;;;;;5039966;28;87780;-60
2023/08/30 06:08:42;;;;;;;3.97;2.10;;;25.30;48.10;;;;;;5039832;28;88358;-60
2023/08/30 06:11:10;;;;;;;4.70;2.03;;;25.30;48.10;;;;;;5056418;27;88288;-60
2023/08/30 06:13:38;;;;;;;2.57;1.93;;;25.30;48.10;;;;;;5059798;27;88892;-60
2023/08/30 06:16:06;;;;;;;2.47;1.70;;;25.30;48.20;;;;;;5060999;27;87659;-60
2023/08/30 06:18:34;;;;;;;3.13;1.83;;;25.30;48.20;;;;;;5060820;27;89705;-60
2023/08/30 06:21:04;;;;;;;2.83;1.77;;;25.30;48.20;;;;;;5060568;27;87996;-60
2023/08/30 06:23:34;;;;;;;3.40;2.17;;;25.30;48.20;;;;;;5060350;27;88601;-61
2023/08/30 06:26:02;;;;;;;4.53;2.27;;;25.30;48.20;;;;;;5061877;27;87524;-60
2023/08/30 06:28:31;;;;;;;4.83;2.60;;;25.30;48.20;;;;;;5043521;27;89846;-61
2023/08/30 06:30:59;;;;;;;2.30;2.00;;;25.30;48.20;;;;;;5042858;28;89995;-60
2023/08/30 06:33:27;;;;;;;3.27;2.47;;;25.30;48.20;;;;;;5043807;28;89838;-60
2023/08/30 06:35:56;;;;;;;2.37;2.00;;;25.30;48.20;;;;;;5043450;28;87228;-60
2023/08/30 06:38:25;;;;;;;4.13;2.30;;;25.30;48.20;;;;;;5043511;28;89647;-60
2023/08/30 06:40:53;;;;;;;5.37;2.53;;;25.30;48.20;;;;;;5043206;28;89087;-61
2023/08/30 06:43:21;;;;;;;3.37;2.33;;;25.30;48.20;;;;;;5042452;27;88897;-62
2023/08/30 06:45:49;;;;;;;2.33;1.90;;;25.30;48.20;;;;;;5043440;28;87654;-60
2023/08/30 06:48:17;;;;;;;2.80;2.40;;;25.30;48.20;;;;;;5042690;28;89558;-61
2023/08/30 06:50:45;;;;;;;3.33;2.50;;;25.30;48.20;;;;;;5043468;28;88042;-60
2023/08/30 06:53:14;;;;;;;4.80;2.33;;;25.30;48.20;;;;;;5043032;27;87759;-60
2023/08/30 06:55:44;;;;;;;6.20;2.30;;;25.30;48.20;;;;;;5053614;27;88254;-60
2023/08/30 06:58:12;;;;;;;2.93;2.00;;;25.30;48.20;;;;;;5063182;27;89627;-61
2023/08/30 07:00:40;;;;;;;2.60;2.00;;;25.30;48.20;;;;;;5063295;27;89103;-61
2023/08/30 07:03:08;;;;;;;2.63;1.90;;;25.30;48.20;;;;;;5063363;27;88781;-62
2023/08/30 07:05:38;;;;;;;4.03;2.00;;;25.30;48.20;;;;;;5063102;27;88193;-61
2023/08/30 07:08:06;;;;;;;2.50;1.93;;;25.30;48.20;;;;;;5063011;27;89867;-60
2023/08/30 07:10:35;;;;;;;4.23;2.27;;;25.30;48.20;;;;;;5062930;27;89123;-60
2023/08/30 07:13:10;;;;;;;4.23;2.23;;;25.30;48.20;;;;;;5062807;27;88844;-60
2023/08/30 07:15:39;;;;;;;2.43;2.20;;;25.30;48.20;;;;;;5062942;27;87648;-60
2023/08/30 07:18:07;;;;;;;3.40;2.27;;;25.30;48.20;;;;;;5063059;27;87392;-60
2023/08/30 07:20:36;;;;;;;2.27;1.97;;;25.30;48.20;;;;;;5062104;27;90048;-61
2023/08/30 07:23:04;;;;;;;2.47;1.67;;;25.30;48.20;;;;;;5062834;27;89604;-60
2023/08/30 07:25:36;;;;;;;4.03;2.20;;;25.30;48.20;;;;;;5062365;27;87786;-60
2023/08/30 07:28:06;;;;;;;1.93;1.77;;;25.30;48.20;;;;;;5062933;27;90115;-60
2023/08/30 07:30:35;;;;;;;4.87;2.37;;;25.30;48.30;;;;;;5063523;27;89949;-59
2023/08/30 07:33:04;;;;;;;3.00;1.87;;;25.30;48.30;;;;;;5061217;27;89296;-59
2023/08/30 07:35:33;;;;;;;3.83;1.93;;;25.30;48.30;;;;;;5044319;27;87686;-59
2023/08/30 07:38:01;;;;;;;2.43;1.60;;;25.30;48.30;;;;;;5042595;28;89330;-59
2023/08/30 07:40:30;;;;;;;2.60;1.70;;;25.30;48.30;;;;;;5041978;28;89379;-58
2023/08/30 07:42:59;;;;;;;2.17;1.80;;;25.30;48.40;;;;;;5041178;28;87715;-59
2023/08/30 07:45:28;;;;;;;2.27;1.97;;;25.30;48.40;;;;;;5042334;28;87959;-58
2023/08/30 07:47:56;;;;;;;4.53;1.53;;;25.30;48.40;;;;;;5042431;28;89758;-58
2023/08/30 07:50:24;;;;;;;2.07;1.87;;;25.30;49.10;;;;;;5041867;28;88242;-58
2023/08/30 07:52:52;;;;;;;3.20;1.60;;;25.30;49.10;;;;;;5041917;28;88534;-58
2023/08/30 07:55:20;;;;;;;3.40;1.80;;;25.20;48.40;;;;;;5041739;28;87654;-58
2023/08/30 07:57:48;;;;;;;2.13;1.67;;;25.20;48.50;;;;;;5042868;28;88501;-58
2023/08/30 08:00:17;;;;;;;1.77;1.67;;;25.20;48.40;;;;;;5042431;28;89142;-58
2023/08/30 08:02:47;;;;;;;2.57;1.70;;;25.20;48.40;;;;;;5051314;27;88848;-58
2023/08/30 08:05:15;;;;;;;2.37;1.60;;;25.20;48.50;;;;;;5058847;27;87775;-58
2023/08/30 08:07:43;;;;;;;1.87;1.40;;;25.20;48.40;;;;;;5060405;27;88818;-58
2023/08/30 08:10:11;;;;;;;4.43;1.77;;;25.20;48.50;;;;;;5061427;27;90089;-58
2023/08/30 08:12:39;;;;;;;2.80;1.60;;;25.20;48.50;;;;;;5062252;27;88820;-59
2023/08/30 08:15:08;;;;;;;1.43;1.20;;;25.20;48.40;;;;;;5062632;27;87723;-58
2023/08/30 08:17:36;;;;;;;4.83;1.57;;;25.20;48.40;;;;;;5061957;27;89823;-58
2023/08/30 08:20:07;;;;;;;1.50;1.20;;;25.20;48.50;;;;;;5062092;27;89171;-58
2023/08/30 08:22:35;;;;;;;2.10;1.50;;;25.20;48.50;;;;;;5061400;27;88965;-59
2023/08/30 08:25:03;;;;;;;2.03;1.70;;;25.20;48.40;;;;;;5062598;27;87623;-58
2023/08/30 08:27:32;;;;;;;2.37;1.40;;;25.30;48.50;;;;;;5062236;27;89471;-58
2023/08/30 08:30:00;;;;;;;2.27;1.67;;;25.30;48.50;;;;;;5061499;27;88260;-58
2023/08/30 08:32:28;;;;;;;2.20;1.10;;;25.30;48.50;;;;;;5050846;27;87551;-58
2023/08/30 08:34:56;;;;;;;1.40;1.30;;;25.30;48.50;;;;;;5040986;28;87821;-58
2023/08/30 08:37:25;;;;;;;2.17;1.40;;;25.30;48.50;;;;;;5041412;28;89485;-58
2023/08/30 08:39:54;;;;;;;2.27;1.40;;;25.30;48.40;;;;;;5041662;28;89097;-59
2023/08/30 08:42:22;;;;;;;1.13;1.03;;;25.30;48.40;;;;;;5040947;28;88785;-58
2023/08/30 08:44:51;;;;;;;1.20;0.87;;;25.30;48.40;;;;;;5041701;27;87525;-58
2023/08/30 08:47:20;;;;;;;1.70;1.00;;;25.40;48.40;;;;;;5042216;27;89360;-59
2023/08/30 08:49:48;;;;;;;1.67;1.20;;;25.40;48.40;;;;;;5040500;28;89089;-58
2023/08/30 08:52:16;;;;;;;2.80;1.40;;;25.40;48.40;;;;;;5047021;27;88815;-58
2023/08/30 08:55:01;;;;;;;1.37;1.20;;;25.40;48.40;;;;;;5054351;27;89829;-58
2023/08/30 08:57:31;;;;;;;2.03;1.17;;;25.40;48.30;;;;;;5051505;27;89689;-58
2023/08/30 08:59:59;;;;;;;1.30;1.20;;;25.40;48.40;;;;;;5040422;28;89112;-58
2023/08/30 09:02:28;;;;;;;1.87;1.53;;;25.40;48.40;;;;;;5040873;27;89091;-58
2023/08/30 09:04:58;;;;;;;1.23;1.03;;;25.40;48.40;;;;;;5041012;28;87590;-58
2023/08/30 09:07:28;;;;;;;2.10;1.23;;;25.40;48.40;;;;;;5040609;28;89635;-58
2023/08/30 09:09:56;;;;;;;2.60;1.00;;;25.40;48.40;;;;;;5040875;28;88122;-58
2023/08/30 09:12:25;;;;;;;2.87;1.17;;;25.40;48.40;;;;;;5041011;28;88939;-58
2023/08/30 09:14:56;;;;;;;1.10;1.00;;;25.40;48.40;;;;;;5057741;27;87688;-58
2023/08/30 09:17:35;;;;;;;2.33;0.93;;;25.40;48.50;;;;;;5061041;27;88533;-58
2023/08/30 09:20:08;;;;;;;1.53;1.30;;;25.40;48.40;;;;;;5040986;28;89041;-58
2023/08/30 09:22:42;;;;;;;3.57;1.60;;;25.40;48.50;;;;;;5046375;27;88933;-59
2023/08/30 09:25:12;;;;;;;1.60;1.47;;;25.40;48.50;;;;;;5061393;27;87878;-58
2023/08/30 09:27:42;;;;;;;1.83;1.30;;;25.40;48.50;;;;;;5061521;27;87302;-58
2023/08/30 09:30:11;;;;;;;1.70;1.30;;;25.40;48.50;;;;;;5060987;27;88119;-58
2023/08/30 09:32:41;;;;;;;2.17;1.63;;;25.40;48.50;;;;;;5055910;27;88842;-58
2023/08/30 09:35:10;;;;;;;1.30;1.20;;;25.40;48.50;;;;;;5051708;27;87572;-58
2023/08/30 09:37:38;;;;;;;2.00;1.50;;;25.40;48.50;;;;;;5040307;28;89827;-58
2023/08/30 09:40:07;;;;;;;1.30;1.13;;;25.40;48.40;;;;;;5036384;27;89123;-58
2023/08/30 09:42:35;;;;;;;1.37;1.27;;;25.40;48.40;;;;;;5046937;27;88654;-58
2023/08/30 09:45:06;;;;;;;1.63;1.20;;;25.40;48.40;;;;;;5045777;27;87953;-58
2023/08/30 09:47:35;;;;;;;1.60;1.33;;;25.40;48.50;;;;;;5040657;27;90134;-60
2023/08/30 09:50:03;;;;;;;2.40;1.17;;;25.40;48.50;;;;;;5049590;27;90131;-58
2023/08/30 09:52:32;;;;;;;1.20;1.10;;;25.40;48.50;;;;;;5060643;27;89571;-58
2023/08/30 09:55:00;;;;;;;2.30;1.60;;;25.40;48.50;;;;;;5042957;27;87352;-58
2023/08/30 09:57:28;;;;;;;1.40;1.10;;;25.40;48.50;;;;;;5040294;28;89640;-58
2023/08/30 09:59:57;;;;;;;3.27;1.20;;;25.00;48.30;;;;;;5040002;28;89145;-58
2023/08/30 10:02:26;;;;;;;1.73;1.47;;;25.40;48.50;;;;;;5040852;27;87719;-58
2023/08/30 10:04:54;;;;;;;1.67;1.13;;;25.40;48.60;;;;;;5039982;28;87381;-58
2023/08/30 10:07:23;;;;;;;2.17;1.53;;;25.40;48.60;;;;;;5040607;28;89663;-58
2023/08/30 10:09:52;;;;;;;2.67;1.57;;;25.40;48.60;;;;;;5040659;28;89101;-59
2023/08/30 10:12:36;;;;;;;3.37;1.27;;;25.40;48.70;;;;;;5040399;28;88784;-59
2023/08/30 10:15:06;;;;;;;2.13;1.47;;;25.40;48.70;;;;;;5040053;28;87782;-60
2023/08/30 10:17:35;;;;;;;3.33;2.10;;;25.40;48.70;;;;;;5040261;28;88594;-60
2023/08/30 10:20:05;;;;;;;1.60;1.30;;;25.40;48.70;;;;;;5040692;27;89283;-60
2023/08/30 10:22:33;;;;;;;3.53;1.67;;;25.40;48.70;;;;;;5040069;28;88796;-59
2023/08/30 10:25:04;;;;;;;2.33;1.43;;;25.40;48.70;;;;;;5039652;27;87649;-59
2023/08/30 10:27:52;;;;;;;2.53;1.70;;;25.40;48.70;;;;;;5039500;28;90886;-60
2023/08/30 10:30:21;;;;;;;2.50;1.50;;;25.40;48.70;;;;;;5039472;28;88044;-59
2023/08/30 10:32:51;;;;;;;3.50;2.07;;;25.40;48.60;;;;;;5040383;28;87853;-59
2023/08/30 10:35:20;;;;;;;2.77;2.03;;;25.40;48.60;;;;;;5040232;28;87746;-59
2023/08/30 10:37:57;;;;;;;4.00;2.00;;;25.40;48.60;;;;;;5040509;27;89849;-59
2023/08/30 10:40:25;;;;;;;2.73;2.23;;;25.40;48.60;;;;;;5039477;28;90160;-59
2023/08/30 10:43:01;;;;;;;3.23;1.70;;;25.50;48.70;;;;;;5049713;27;89855;-59
2023/08/30 10:45:29;;;;;;;3.50;1.93;;;25.50;48.60;;;;;;5059861;27;88872;-59
2023/08/30 10:48:00;;;;;;;4.60;1.90;;;25.50;48.50;;;;;;5059935;27;89424;-59
2023/08/30 10:50:31;;;;;;;2.97;1.80;;;25.50;48.50;;;;;;5060170;27;89024;-59
2023/08/30 10:53:00;;;;;;;4.87;2.17;;;25.60;48.60;;;;;;5058483;27;88786;-58
2023/08/30 10:55:28;;;;;;;3.40;1.90;;;25.60;48.50;;;;;;5060080;27;87584;-58
2023/08/30 10:58:00;;;;;;;4.73;2.17;;;25.60;48.50;;;;;;5059333;27;89662;-58
2023/08/30 11:00:29;;;;;;;3.83;2.87;;;25.60;48.60;;;;;;5051148;27;89129;-59
2023/08/30 11:02:58;;;;;;;3.47;2.60;;;25.60;48.50;;;;;;5054565;27;88949;-59
2023/08/30 11:05:27;;;;;;;3.90;3.00;;;25.60;49.20;;;;;;5059800;27;87930;-58
2023/08/30 11:07:56;;;;;;;3.83;3.17;;;25.60;48.50;;;;;;5059741;27;89826;-58
2023/08/30 11:10:25;;;;;;;4.63;3.20;;;25.60;48.50;;;;;;5053895;27;88058;-59
2023/08/30 11:12:53;;;;;;;7.17;3.97;;;25.60;48.50;;;;;;5062391;27;88941;-58
2023/08/30 11:15:21;;;;;;;6.13;3.57;;;25.60;48.50;;;;;;5058508;27;87593;-58
2023/08/30 11:17:50;;;;;;;5.63;3.10;;;25.60;48.50;;;;;;5045918;27;89557;-58
2023/08/30 11:20:20;;;;;;;5.87;3.67;;;25.60;48.60;;;;;;5055708;27;89241;-59
2023/08/30 11:22:49;;;;;;;3.97;3.10;;;25.60;48.60;;;;;;5062894;27;88866;-58
2023/08/30 11:25:17;;;;;;;3.13;2.80;;;25.70;48.60;;;;;;5053567;27;87438;-58
2023/08/30 11:27:47;;;;;;;4.30;3.10;;;25.70;48.60;;;;;;5062443;27;88440;-58
2023/08/30 11:30:15;;;;;;;4.63;3.20;;;25.70;48.60;;;;;;5044174;27;90387;-58
2023/08/30 11:32:43;;;;;;;3.53;2.60;;;25.70;48.60;;;;;;5042230;28;90035;-58
2023/08/30 11:35:12;;;;;;;6.00;3.43;;;25.70;48.60;;;;;;5042374;27;87573;-58
2023/08/30 11:37:42;;;;;;;5.63;4.00;;;25.70;48.60;;;;;;5042234;27;89844;-58
2023/08/30 11:40:11;;;;;;;5.30;3.13;;;25.80;48.60;;;;;;5054966;27;88086;-58
2023/08/30 11:42:40;;;;;;;6.67;3.40;;;25.80;48.60;;;;;;5061033;27;87780;-58
2023/08/30 11:45:10;;;;;;;6.97;3.37;;;25.80;48.60;;;;;;5059524;27;87651;-58
2023/08/30 11:47:38;;;;;;;5.07;2.90;;;25.80;48.60;;;;;;5058277;27;89712;-59
2023/08/30 11:50:10;;;;;;;5.50;3.07;;;25.80;48.60;;;;;;5063171;27;89055;-58
2023/08/30 11:52:38;;;;;;;3.73;2.77;;;25.80;48.70;;;;;;5062707;27;89227;-58
2023/08/30 11:55:08;;;;;;;4.67;2.90;;;25.80;48.70;;;;;;5062598;27;87912;-58
2023/08/30 11:57:37;;;;;;;6.50;2.60;;;25.80;48.70;;;;;;5062817;27;87463;-58
2023/08/30 12:00:09;;;;;;;3.07;2.47;;;25.80;48.70;;;;;;5063378;27;89434;-58
2023/08/30 12:02:37;;;;;;;3.53;2.53;;;25.80;48.70;;;;;;5072784;27;88736;-58
2023/08/30 12:05:05;;;;;;;4.07;2.17;;;25.80;48.60;;;;;;5062880;27;87850;-59
2023/08/30 12:07:34;;;;;;;2.83;1.93;;;25.80;48.60;;;;;;5062327;27;89768;-58
2023/08/30 12:10:05;;;;;;;4.80;2.30;;;25.80;48.60;;;;;;5056708;27;88089;-58
2023/08/30 12:12:36;;;;;;;4.43;2.30;;;25.90;48.70;;;;;;5056405;27;88860;-58
2023/08/30 12:15:09;;;;;;;2.50;2.30;;;25.80;48.60;;;;;;5062819;27;87587;-59
2023/08/30 12:17:37;;;;;;;3.47;2.57;;;25.90;48.60;;;;;;5061925;27;89685;-58
2023/08/30 12:20:06;;;;;;;2.87;2.13;;;25.90;48.60;;;;;;5060530;27;90051;-58
2023/08/30 12:22:39;;;;;;;3.13;2.03;;;25.90;48.60;;;;;;5044273;27;89783;-58
2023/08/30 12:25:17;;;;;;;2.73;1.90;;;25.90;48.60;;;;;;5061589;27;87571;-58
2023/08/30 12:27:47;;;;;;;3.63;2.43;;;25.90;48.60;;;;;;5062243;27;88464;-58
2023/08/30 12:30:16;;;;;;;3.87;2.00;;;26.00;48.80;;;;;;5061486;27;89267;-58
2023/08/30 12:32:45;;;;;;;6.53;2.23;;;26.00;48.80;;;;;;5061003;27;88869;-58
2023/08/30 12:35:14;;;;;;;4.00;2.50;;;26.00;48.90;;;;;;5061227;27;87565;-58
2023/08/30 12:37:42;;;;;;;7.73;2.77;;;26.00;49.00;;;;;;5054593;27;89647;-59
2023/08/30 12:40:12;;;;;;;6.47;2.53;;;26.00;49.10;;;;;;5061253;27;89050;-58
2023/08/30 12:42:40;;;;;;;11.70;2.77;;;26.00;49.10;;;;;;5061256;27;87887;-59
2023/08/30 12:45:10;;;;;;;8.93;2.60;;;25.90;49.10;;;;;;5061966;27;87807;-59
2023/08/30 12:47:39;;;;;;;5.73;1.97;;;25.90;49.10;;;;;;5062350;27;88426;-59
2023/08/30 12:50:09;;;;;;;8.00;2.47;;;25.90;49.20;;;;;;5061637;27;88793;-59
2023/08/30 12:52:37;;;;;;;6.73;2.00;;;25.90;49.20;;;;;;5061345;27;88815;-58
2023/08/30 12:55:06;;;;;;;5.30;2.53;;;25.90;49.20;;;;;;5061715;27;87583;-59
2023/08/30 12:57:34;;;;;;;4.63;2.00;;;26.00;49.20;;;;;;5060901;27;89443;-59